createdAt,value
2023-01-23T00:04:46.678Z,25.17
2023-01-23T00:09:54.122Z,25.21
2023-01-23T00:15:01.168Z,25.26
2023-01-23T00:20:08.482Z,25.31
2023-01-23T00:25:15.900Z,25.35
2023-01-23T00:30:22.953Z,25.44
2023-01-23T00:35:30.144Z,25.46
2023-01-23T00:40:37.525Z,25.28
2023-01-23T00:45:44.622Z,25.17
2023-01-23T00:50:51.937Z,25.03
2023-01-23T00:55:59.309Z,24.91
2023-01-23T01:01:06.388Z,24.71
2023-01-23T01:06:13.559Z,24.57
2023-01-23T01:11:20.914Z,24.38
2023-01-23T01:16:28.013Z,24.26
2023-01-23T01:21:35.141Z,24.14
2023-01-23T01:26:42.441Z,23.95
2023-01-23T01:31:49.578Z,23.81
2023-01-23T01:36:56.681Z,23.62
2023-01-23T01:42:04.001Z,23.50
2023-01-23T01:47:11.039Z,23.37
2023-01-23T01:52:18.220Z,23.23
2023-01-23T01:57:25.533Z,23.07
2023-01-23T02:02:32.644Z,22.93
2023-01-23T02:07:39.785Z,22.78
2023-01-23T02:12:47.074Z,22.65
2023-01-23T02:17:54.147Z,22.55
2023-01-23T02:23:01.338Z,22.39
2023-01-23T02:28:08.681Z,22.28
2023-01-23T02:33:15.790Z,22.18
2023-01-23T02:38:22.975Z,22.07
2023-01-23T02:43:30.607Z,21.97
2023-01-23T02:48:37.647Z,21.90
2023-01-23T02:53:44.833Z,21.78
2023-01-23T02:58:52.137Z,21.72
2023-01-23T03:03:59.197Z,21.70
2023-01-23T03:09:06.395Z,21.58
2023-01-23T03:14:13.725Z,21.52
2023-01-23T03:19:20.881Z,21.41
2023-01-23T03:24:28.048Z,21.30
2023-01-23T03:29:35.358Z,21.24
2023-01-23T03:34:42.465Z,21.22
2023-01-23T03:39:49.758Z,21.16
2023-01-23T03:44:57.113Z,21.12
2023-01-23T03:50:04.301Z,21.06
2023-01-23T03:55:11.452Z,20.99
2023-01-23T04:00:19.220Z,20.96
2023-01-23T04:05:25.851Z,20.90
2023-01-23T04:10:33.051Z,20.85
2023-01-23T04:15:40.347Z,20.79
2023-01-23T04:20:47.398Z,20.74
2023-01-23T04:25:54.572Z,20.69
2023-01-23T04:31:02.095Z,20.63
2023-01-23T04:36:09.042Z,20.59
2023-01-23T04:41:16.223Z,20.57
2023-01-23T04:46:23.966Z,20.55
2023-01-23T04:51:31.015Z,20.54
2023-01-23T04:56:38.198Z,20.50
2023-01-23T05:01:45.398Z,20.45
2023-01-23T05:06:52.565Z,20.41
2023-01-23T05:11:59.746Z,20.37
2023-01-23T05:17:07.050Z,20.35
2023-01-23T05:22:14.096Z,20.30
2023-01-23T05:27:21.272Z,20.27
2023-01-23T05:32:28.653Z,20.22
2023-01-23T05:37:35.755Z,20.18
2023-01-23T05:42:42.930Z,20.14
2023-01-23T05:47:50.223Z,20.15
2023-01-23T05:52:57.307Z,20.17
2023-01-23T05:58:04.566Z,20.16
2023-01-23T06:03:11.997Z,20.12
2023-01-23T06:08:19.059Z,20.10
2023-01-23T06:13:26.257Z,20.07
2023-01-23T06:18:33.743Z,20.02
2023-01-23T06:23:40.794Z,19.97
2023-01-23T06:28:48.002Z,19.92
2023-01-23T06:33:55.511Z,19.90
2023-01-23T06:39:02.643Z,19.87
2023-01-23T06:44:09.848Z,19.87
2023-01-23T06:49:17.144Z,19.89
2023-01-23T06:54:24.225Z,19.90
2023-01-23T06:59:31.402Z,19.92
2023-01-23T07:04:38.733Z,19.92
2023-01-23T07:09:45.951Z,19.89
2023-01-23T07:14:53.153Z,19.86
2023-01-23T07:20:00.491Z,19.83
2023-01-23T07:25:07.646Z,19.80
2023-01-23T07:30:14.841Z,19.76
2023-01-23T07:35:22.140Z,19.79
2023-01-23T07:40:29.200Z,19.88
2023-01-23T07:45:36.368Z,19.99
2023-01-23T07:50:43.683Z,20.17
2023-01-23T07:55:50.738Z,20.38
2023-01-23T08:00:57.986Z,20.59
2023-01-23T08:06:05.226Z,20.80
2023-01-23T08:11:12.304Z,20.97
2023-01-23T08:16:19.523Z,21.12
2023-01-23T08:21:26.723Z,21.27
2023-01-23T08:26:33.846Z,21.40
2023-01-23T08:31:41.101Z,21.53
2023-01-23T08:36:48.434Z,21.60
2023-01-23T08:41:55.464Z,21.62
2023-01-23T08:47:02.715Z,21.60
2023-01-23T08:52:10.028Z,21.55
2023-01-23T08:57:17.131Z,21.44
2023-01-23T09:02:24.656Z,21.38
2023-01-23T09:07:31.744Z,21.32
2023-01-23T09:12:38.901Z,21.24
2023-01-23T09:17:46.107Z,21.17
2023-01-23T09:22:53.392Z,21.10
2023-01-23T09:28:00.570Z,21.06
2023-01-23T09:33:07.711Z,20.99
2023-01-23T09:38:15.055Z,20.91
2023-01-23T09:43:22.179Z,20.87
2023-01-23T09:48:29.430Z,20.78
2023-01-23T09:53:36.811Z,20.72
2023-01-23T09:58:43.881Z,20.66
2023-01-23T10:03:51.062Z,20.58
2023-01-23T10:08:58.319Z,20.51
2023-01-23T10:14:05.412Z,20.47
2023-01-23T10:19:12.602Z,20.41
2023-01-23T10:24:20.624Z,20.35
2023-01-23T10:29:26.979Z,20.25
2023-01-23T10:34:34.153Z,20.20
2023-01-23T10:39:41.486Z,20.15
2023-01-23T10:44:48.641Z,20.10
2023-01-23T10:49:55.810Z,20.05
2023-01-23T10:55:03.116Z,20.02
2023-01-23T11:00:10.188Z,19.99
2023-01-23T11:05:17.428Z,20.03
2023-01-23T11:10:24.713Z,20.05
2023-01-23T11:15:31.778Z,20.05
2023-01-23T11:20:38.989Z,20.07
2023-01-23T11:25:46.263Z,20.06
2023-01-23T11:31:03.807Z,20.04
2023-01-23T11:36:00.607Z,19.99
2023-01-23T11:41:07.816Z,19.97
2023-01-23T11:46:15.036Z,19.97
2023-01-23T11:51:22.240Z,19.93
2023-01-23T11:56:29.528Z,19.90
2023-01-23T12:01:36.612Z,19.85
2023-01-23T12:06:43.783Z,19.79
2023-01-23T12:11:51.301Z,19.76
2023-01-23T12:16:58.472Z,19.74
2023-01-23T12:22:05.719Z,19.68
2023-01-23T12:27:13.109Z,19.67
2023-01-23T12:32:20.385Z,19.64
2023-01-23T12:37:30.749Z,19.67
2023-01-23T12:42:34.989Z,19.68
2023-01-23T12:47:42.073Z,19.70
2023-01-23T12:52:49.253Z,19.70
2023-01-23T12:58:07.998Z,19.72
2023-01-23T13:03:03.721Z,19.73
2023-01-23T13:08:10.929Z,19.72
2023-01-23T13:13:18.362Z,19.69
2023-01-23T13:18:25.484Z,19.66
2023-01-23T13:23:32.677Z,19.64
2023-01-23T13:28:45.184Z,19.59
2023-01-23T13:33:48.319Z,19.56
2023-01-23T13:38:54.323Z,19.53
2023-01-23T13:44:01.623Z,19.47
2023-01-23T13:49:08.686Z,19.42
2023-01-23T13:54:15.895Z,19.38
2023-01-23T13:59:23.339Z,19.36
2023-01-23T14:04:30.409Z,19.33
2023-01-23T14:09:37.638Z,19.33
2023-01-23T14:14:44.939Z,19.36
2023-01-23T14:19:51.987Z,19.37
2023-01-23T14:24:59.166Z,19.38
2023-01-23T14:30:06.518Z,19.42
2023-01-23T14:35:13.557Z,19.43
2023-01-23T14:40:27.193Z,19.42
2023-01-23T14:45:28.049Z,19.43
2023-01-23T14:50:35.269Z,19.41
2023-01-23T14:55:42.387Z,19.40
2023-01-23T15:00:49.736Z,19.36
2023-01-23T15:05:56.747Z,19.33
2023-01-23T15:11:03.930Z,19.29
2023-01-23T15:16:11.272Z,19.26
2023-01-23T15:21:18.306Z,19.23
2023-01-23T15:26:25.524Z,19.20
2023-01-23T15:31:33.691Z,19.17
2023-01-23T15:36:40.677Z,19.13
2023-01-23T15:41:47.854Z,19.12
2023-01-23T15:46:55.170Z,19.14
2023-01-23T15:52:02.219Z,19.17
2023-01-23T15:57:09.528Z,19.23
2023-01-23T16:02:29.667Z,19.30
2023-01-23T16:07:23.780Z,19.30
2023-01-23T16:12:30.939Z,19.31
2023-01-23T16:17:38.283Z,19.31
2023-01-23T16:22:45.369Z,19.30
2023-01-23T16:27:52.617Z,19.30
2023-01-23T16:32:59.975Z,19.30
2023-01-23T16:38:07.021Z,19.29
2023-01-23T16:43:14.171Z,19.26
2023-01-23T16:48:27.238Z,19.24
2023-01-23T16:53:28.850Z,19.23
2023-01-23T16:58:36.219Z,19.18
2023-01-23T17:03:43.720Z,19.13
2023-01-23T17:08:50.780Z,19.13
2023-01-23T17:13:58.024Z,19.09
2023-01-23T17:19:05.462Z,19.05
2023-01-23T17:24:13.634Z,19.02
2023-01-23T17:29:21.179Z,19.06
2023-01-23T17:34:29.268Z,19.08
2023-01-23T17:39:36.169Z,19.07
2023-01-23T17:44:43.642Z,19.06
2023-01-23T17:49:51.142Z,19.06
2023-01-23T17:54:58.156Z,19.05
2023-01-23T18:00:05.849Z,19.06
2023-01-23T18:05:13.384Z,19.03
2023-01-23T18:10:20.666Z,19.02
2023-01-23T18:15:27.998Z,19.00
2023-01-23T18:20:35.560Z,18.96
2023-01-23T18:25:42.831Z,18.94
2023-01-23T18:30:50.528Z,18.90
2023-01-23T18:35:58.234Z,18.87
2023-01-23T18:41:05.928Z,18.87
2023-01-23T18:46:13.851Z,18.89
2023-01-23T18:51:21.588Z,18.91
2023-01-23T18:56:29.400Z,18.89
2023-01-23T19:01:36.807Z,18.93
2023-01-23T19:06:44.334Z,18.94
2023-01-23T19:11:51.944Z,18.96
2023-01-23T19:16:59.700Z,18.97
2023-01-23T19:22:07.157Z,18.96
2023-01-23T19:27:14.574Z,18.96
2023-01-23T19:32:22.318Z,18.94
2023-01-23T19:37:30.030Z,19.04
2023-01-23T19:42:48.941Z,19.09
2023-01-23T19:47:45.024Z,19.18
2023-01-23T19:52:52.786Z,19.28
2023-01-23T19:58:00.259Z,19.49
2023-01-23T20:03:07.874Z,19.75
2023-01-23T20:08:15.608Z,20.03
2023-01-23T20:13:23.195Z,20.29
2023-01-23T20:18:30.828Z,20.53
2023-01-23T20:23:38.455Z,20.73
2023-01-23T20:28:45.756Z,20.97
2023-01-23T20:33:53.532Z,21.22
2023-01-23T20:39:01.435Z,21.46
2023-01-23T20:44:09.205Z,21.71
2023-01-23T20:49:16.810Z,21.94
2023-01-23T20:54:25.158Z,22.19
2023-01-23T20:59:32.374Z,22.36
2023-01-23T21:04:40.060Z,22.50
2023-01-23T21:09:47.557Z,22.65
2023-01-23T21:14:54.986Z,22.81
2023-01-23T21:20:02.397Z,23.00
2023-01-23T21:25:09.786Z,23.14
2023-01-23T21:30:17.217Z,23.26
2023-01-23T21:35:24.643Z,23.33
2023-01-23T21:40:32.259Z,23.47
2023-01-23T21:45:40.188Z,23.51
2023-01-23T21:50:47.421Z,23.59
2023-01-23T21:55:54.885Z,23.76
2023-01-23T22:01:02.005Z,23.82
2023-01-23T22:06:09.190Z,23.90
2023-01-23T22:11:16.535Z,24.01
2023-01-23T22:16:40.169Z,24.10
2023-01-23T22:21:30.984Z,24.08
2023-01-23T22:26:38.369Z,24.09
2023-01-23T22:31:45.624Z,24.29
2023-01-23T22:36:52.769Z,24.30
2023-01-23T22:42:00.124Z,24.40
2023-01-23T22:47:07.373Z,24.43
2023-01-23T22:52:14.545Z,24.48
2023-01-23T22:57:21.791Z,24.44
2023-01-23T23:02:29.007Z,24.48
2023-01-23T23:07:36.201Z,24.55
2023-01-23T23:12:43.591Z,24.51
2023-01-23T23:17:50.728Z,24.39
2023-01-23T23:22:57.956Z,24.22
2023-01-23T23:28:05.367Z,24.06
2023-01-23T23:33:12.520Z,23.87
2023-01-23T23:38:19.714Z,23.66
2023-01-23T23:43:27.044Z,23.51
2023-01-23T23:48:34.274Z,23.32
2023-01-23T23:53:41.484Z,23.19
2023-01-23T23:58:48.868Z,22.98
